sensor_id;sensor_type;location;lat;lon;timestamp;pressure;altitude;pressure_sealevel;temperature;humidity
43681;BME280;29281;50.356;30.894;2023-02-14T00:00:57;100403.25;;;4.53;100.00
43681;BME280;29281;50.356;30.894;2023-02-14T00:02:02;100400.80;;;4.70;100.00
43681;BME280;29281;50.356;30.894;2023-02-14T00:03:08;100400.59;;;4.75;100.00
43681;BME280;29281;50.356;30.894;2023-02-14T00:04:11;100405.14;;;4.71;100.00
43681;BME280;29281;50.356;30.894;2023-02-14T00:05:17;100401.66;;;4.71;100.00
43681;BME280;29281;50.356;30.894;2023-02-14T00:06:20;100410.41;;;4.71;100.00
43681;BME280;29281;50.356;30.894;2023-02-14T00:07:24;100404.34;;;4.69;100.00
43681;BME280;29281;50.356;30.894;2023-02-14T00:08:27;100396.74;;;4.62;100.00
43681;BME280;29281;50.356;30.894;2023-02-14T00:09:31;100399.58;;;4.57;100.00
43681;BME280;29281;50.356;30.894;2023-02-14T00:10:36;100393.41;;;4.58;100.00
43681;BME280;29281;50.356;30.894;2023-02-14T00:11:39;100402.92;;;4.60;100.00
43681;BME280;29281;50.356;30.894;2023-02-14T00:12:45;100398.67;;;4.58;100.00
43681;BME280;29281;50.356;30.894;2023-02-14T00:13:50;100393.26;;;4.61;100.00
43681;BME280;29281;50.356;30.894;2023-02-14T00:15:11;100392.64;;;4.76;100.00
43681;BME280;29281;50.356;30.894;2023-02-14T00:16:26;100391.78;;;4.76;100.00
43681;BME280;29281;50.356;30.894;2023-02-14T00:17:29;100382.67;;;4.84;100.00
43681;BME280;29281;50.356;30.894;2023-02-14T00:18:34;100373.02;;;4.63;100.00
43681;BME280;29281;50.356;30.894;2023-02-14T00:19:56;100378.55;;;4.57;100.00
43681;BME280;29281;50.356;30.894;2023-02-14T00:20:59;100374.79;;;4.63;100.00
43681;BME280;29281;50.356;30.894;2023-02-14T00:22:03;100369.53;;;4.63;100.00
43681;BME280;29281;50.356;30.894;2023-02-14T00:23:07;100370.89;;;4.51;100.00
43681;BME280;29281;50.356;30.894;2023-02-14T00:25:17;100368.67;;;4.62;100.00
43681;BME280;29281;50.356;30.894;2023-02-14T00:26:21;100374.73;;;4.64;100.00
43681;BME280;29281;50.356;30.894;2023-02-14T00:27:27;100369.41;;;4.66;100.00
43681;BME280;29281;50.356;30.894;2023-02-14T00:28:31;100365.80;;;4.68;100.00
43681;BME280;29281;50.356;30.894;2023-02-14T00:29:35;100367.39;;;4.72;100.00
43681;BME280;29281;50.356;30.894;2023-02-14T00:30:39;100360.13;;;4.57;100.00
43681;BME280;29281;50.356;30.894;2023-02-14T00:31:44;100358.48;;;4.54;100.00
43681;BME280;29281;50.356;30.894;2023-02-14T00:32:48;100363.00;;;4.51;100.00
43681;BME280;29281;50.356;30.894;2023-02-14T00:33:52;100367.23;;;4.55;100.00
43681;BME280;29281;50.356;30.894;2023-02-14T00:34:56;100367.81;;;4.62;100.00
43681;BME280;29281;50.356;30.894;2023-02-14T00:36:01;100361.58;;;4.64;100.00
43681;BME280;29281;50.356;30.894;2023-02-14T00:37:04;100372.55;;;4.53;100.00
43681;BME280;29281;50.356;30.894;2023-02-14T00:38:07;100358.36;;;4.57;100.00
43681;BME280;29281;50.356;30.894;2023-02-14T00:39:11;100361.45;;;4.67;100.00
43681;BME280;29281;50.356;30.894;2023-02-14T00:40:19;100366.54;;;4.72;100.00
43681;BME280;29281;50.356;30.894;2023-02-14T00:41:19;100359.03;;;4.41;100.00
43681;BME280;29281;50.356;30.894;2023-02-14T00:42:22;100358.27;;;4.59;100.00
43681;BME280;29281;50.356;30.894;2023-02-14T00:43:25;100368.79;;;4.59;100.00
43681;BME280;29281;50.356;30.894;2023-02-14T00:44:27;100356.77;;;4.53;100.00
43681;BME280;29281;50.356;30.894;2023-02-14T00:45:31;100347.90;;;4.56;100.00
43681;BME280;29281;50.356;30.894;2023-02-14T00:46:34;100354.72;;;4.60;100.00
43681;BME280;29281;50.356;30.894;2023-02-14T00:47:37;100351.91;;;4.65;100.00
43681;BME280;29281;50.356;30.894;2023-02-14T00:48:41;100349.74;;;4.74;100.00
43681;BME280;29281;50.356;30.894;2023-02-14T00:49:45;100350.14;;;4.65;100.00
43681;BME280;29281;50.356;30.894;2023-02-14T00:50:51;100350.65;;;4.53;100.00
43681;BME280;29281;50.356;30.894;2023-02-14T00:51:54;100351.97;;;4.63;100.00
43681;BME280;29281;50.356;30.894;2023-02-14T00:52:57;100363.52;;;4.81;100.00
43681;BME280;29281;50.356;30.894;2023-02-14T00:54:01;100361.75;;;4.59;100.00
43681;BME280;29281;50.356;30.894;2023-02-14T00:55:05;100354.19;;;4.52;100.00
43681;BME280;29281;50.356;30.894;2023-02-14T00:56:10;100357.41;;;4.58;100.00
43681;BME280;29281;50.356;30.894;2023-02-14T00:57:13;100364.88;;;4.69;100.00
43681;BME280;29281;50.356;30.894;2023-02-14T00:58:17;100364.55;;;4.77;100.00
43681;BME280;29281;50.356;30.894;2023-02-14T00:59:22;100364.77;;;4.72;100.00
43681;BME280;29281;50.356;30.894;2023-02-14T01:00:25;100357.52;;;4.77;100.00
43681;BME280;29281;50.356;30.894;2023-02-14T01:01:30;100356.08;;;4.90;100.00
43681;BME280;29281;50.356;30.894;2023-02-14T01:02:36;100350.31;;;4.60;100.00
43681;BME280;29281;50.356;30.894;2023-02-14T01:03:43;100354.66;;;4.62;100.00
43681;BME280;29281;50.356;30.894;2023-02-14T01:04:46;100350.69;;;4.73;100.00
43681;BME280;29281;50.356;30.894;2023-02-14T01:05:49;100348.19;;;4.70;100.00
43681;BME280;29281;50.356;30.894;2023-02-14T01:06:52;100345.55;;;4.70;100.00
43681;BME280;29281;50.356;30.894;2023-02-14T01:07:56;100355.50;;;4.84;100.00
43681;BME280;29281;50.356;30.894;2023-02-14T01:09:00;100351.16;;;4.83;100.00
43681;BME280;29281;50.356;30.894;2023-02-14T01:10:05;100347.55;;;4.85;100.00
43681;BME280;29281;50.356;30.894;2023-02-14T01:11:10;100348.58;;;4.81;100.00
43681;BME280;29281;50.356;30.894;2023-02-14T01:12:12;100344.17;;;4.82;100.00
43681;BME280;29281;50.356;30.894;2023-02-14T01:13:17;100343.20;;;4.84;100.00
43681;BME280;29281;50.356;30.894;2023-02-14T01:14:21;100339.89;;;4.79;100.00
43681;BME280;29281;50.356;30.894;2023-02-14T01:15:24;100339.95;;;4.78;100.00
43681;BME280;29281;50.356;30.894;2023-02-14T01:16:28;100342.86;;;4.72;100.00
43681;BME280;29281;50.356;30.894;2023-02-14T01:17:31;100334.05;;;4.73;100.00
43681;BME280;29281;50.356;30.894;2023-02-14T01:18:35;100337.50;;;4.53;100.00
43681;BME280;29281;50.356;30.894;2023-02-14T01:19:39;100322.30;;;4.59;100.00
43681;BME280;29281;50.356;30.894;2023-02-14T01:20:44;100322.91;;;4.66;100.00
43681;BME280;29281;50.356;30.894;2023-02-14T01:21:49;100324.97;;;4.80;100.00
43681;BME280;29281;50.356;30.894;2023-02-14T01:22:56;100313.00;;;4.73;100.00
43681;BME280;29281;50.356;30.894;2023-02-14T01:24:03;100321.14;;;4.67;100.00
43681;BME280;29281;50.356;30.894;2023-02-14T01:25:06;100316.22;;;4.79;100.00
43681;BME280;29281;50.356;30.894;2023-02-14T01:26:11;100319.52;;;4.84;100.00
43681;BME280;29281;50.356;30.894;2023-02-14T01:27:15;100325.36;;;4.71;100.00
43681;BME280;29281;50.356;30.894;2023-02-14T01:28:18;100315.97;;;4.85;100.00
43681;BME280;29281;50.356;30.894;2023-02-14T01:29:23;100318.97;;;4.76;100.00
43681;BME280;29281;50.356;30.894;2023-02-14T01:30:28;100310.68;;;4.65;100.00
43681;BME280;29281;50.356;30.894;2023-02-14T01:31:31;100312.05;;;4.74;100.00
43681;BME280;29281;50.356;30.894;2023-02-14T01:32:34;100327.08;;;4.72;100.00
43681;BME280;29281;50.356;30.894;2023-02-14T01:33:39;100322.27;;;4.81;100.00
43681;BME280;29281;50.356;30.894;2023-02-14T01:34:44;100324.23;;;4.76;100.00
43681;BME280;29281;50.356;30.894;2023-02-14T01:35:46;100317.25;;;4.75;100.00
43681;BME280;29281;50.356;30.894;2023-02-14T01:36:49;100328.57;;;4.57;100.00
43681;BME280;29281;50.356;30.894;2023-02-14T01:37:53;100313.83;;;4.53;100.00
43681;BME280;29281;50.356;30.894;2023-02-14T01:38:57;100311.59;;;4.64;100.00
43681;BME280;29281;50.356;30.894;2023-02-14T01:40:00;100303.77;;;4.63;100.00
43681;BME280;29281;50.356;30.894;2023-02-14T01:41:04;100306.95;;;4.71;100.00
43681;BME280;29281;50.356;30.894;2023-02-14T01:42:09;100308.23;;;4.60;100.00
43681;BME280;29281;50.356;30.894;2023-02-14T01:43:14;100299.70;;;4.55;100.00
43681;BME280;29281;50.356;30.894;2023-02-14T01:45:28;100277.61;;;4.80;100.00
43681;BME280;29281;50.356;30.894;2023-02-14T01:46:34;100286.60;;;4.74;100.00
43681;BME280;29281;50.356;30.894;2023-02-14T01:47:40;100269.40;;;4.87;100.00
43681;BME280;29281;50.356;30.894;2023-02-14T01:48:44;100278.59;;;4.77;100.00
43681;BME280;29281;50.356;30.894;2023-02-14T01:49:59;100276.61;;;4.62;100.00
43681;BME280;29281;50.356;30.894;2023-02-14T01:51:02;100286.83;;;4.70;100.00
43681;BME280;29281;50.356;30.894;2023-02-14T01:53:11;100291.86;;;4.74;100.00
43681;BME280;29281;50.356;30.894;2023-02-14T01:54:16;100300.83;;;4.70;100.00
43681;BME280;29281;50.356;30.894;2023-02-14T01:55:23;100301.53;;;4.74;100.00
43681;BME280;29281;50.356;30.894;2023-02-14T01:56:29;100292.22;;;4.87;100.00
43681;BME280;29281;50.356;30.894;2023-02-14T01:57:42;100293.66;;;4.94;100.00
43681;BME280;29281;50.356;30.894;2023-02-14T01:58:48;100279.38;;;4.79;100.00
43681;BME280;29281;50.356;30.894;2023-02-14T01:59:53;100277.01;;;4.93;100.00
43681;BME280;29281;50.356;30.894;2023-02-14T02:01:00;100268.61;;;4.85;100.00
43681;BME280;29281;50.356;30.894;2023-02-14T02:02:06;100272.89;;;4.88;100.00
43681;BME280;29281;50.356;30.894;2023-02-14T02:03:11;100265.44;;;4.77;100.00
43681;BME280;29281;50.356;30.894;2023-02-14T02:04:16;100271.77;;;4.73;100.00
43681;BME280;29281;50.356;30.894;2023-02-14T02:05:23;100267.87;;;4.82;100.00
43681;BME280;29281;50.356;30.894;2023-02-14T02:06:30;100269.65;;;4.81;100.00
43681;BME280;29281;50.356;30.894;2023-02-14T02:07:34;100267.14;;;4.78;100.00
43681;BME280;29281;50.356;30.894;2023-02-14T02:08:40;100267.63;;;4.88;100.00
43681;BME280;29281;50.356;30.894;2023-02-14T02:09:57;100270.95;;;4.91;100.00
43681;BME280;29281;50.356;30.894;2023-02-14T02:11:00;100259.25;;;4.99;100.00
43681;BME280;29281;50.356;30.894;2023-02-14T02:12:04;100255.09;;;4.93;100.00
43681;BME280;29281;50.356;30.894;2023-02-14T02:13:12;100258.02;;;4.87;100.00
43681;BME280;29281;50.356;30.894;2023-02-14T02:14:18;100249.97;;;4.90;100.00
43681;BME280;29281;50.356;30.894;2023-02-14T02:15:23;100245.11;;;5.01;100.00
43681;BME280;29281;50.356;30.894;2023-02-14T02:16:37;100236.84;;;5.09;100.00
43681;BME280;29281;50.356;30.894;2023-02-14T02:18:49;100242.11;;;5.09;100.00
43681;BME280;29281;50.356;30.894;2023-02-14T02:24:47;100239.91;;;5.00;100.00
43681;BME280;29281;50.356;30.894;2023-02-14T02:32:30;100243.75;;;4.72;100.00
43681;BME280;29281;50.356;30.894;2023-02-14T02:33:42;100236.05;;;4.88;100.00
43681;BME280;29281;50.356;30.894;2023-02-14T02:35:55;100213.03;;;5.12;100.00
43681;BME280;29281;50.356;30.894;2023-02-14T02:38:17;100209.11;;;5.20;100.00
43681;BME280;29281;50.356;30.894;2023-02-14T02:39:26;100207.77;;;5.12;100.00
43681;BME280;29281;50.356;30.894;2023-02-14T02:40:30;100210.95;;;5.00;100.00
43681;BME280;29281;50.356;30.894;2023-02-14T02:44:16;100224.67;;;4.67;100.00
43681;BME280;29281;50.356;30.894;2023-02-14T02:47:10;100219.92;;;4.75;100.00
43681;BME280;29281;50.356;30.894;2023-02-14T02:47:56;100214.05;;;4.89;100.00
43681;BME280;29281;50.356;30.894;2023-02-14T02:49:08;100218.94;;;4.78;100.00
43681;BME280;29281;50.356;30.894;2023-02-14T02:50:19;100226.89;;;4.76;100.00
43681;BME280;29281;50.356;30.894;2023-02-14T02:51:50;100240.52;;;4.86;100.00
43681;BME280;29281;50.356;30.894;2023-02-14T02:54:33;100248.66;;;4.80;100.00
43681;BME280;29281;50.356;30.894;2023-02-14T02:55:41;100244.06;;;4.65;100.00
43681;BME280;29281;50.356;30.894;2023-02-14T02:57:08;100243.87;;;4.69;100.00
43681;BME280;29281;50.356;30.894;2023-02-14T02:58:16;100239.34;;;4.73;100.00
43681;BME280;29281;50.356;30.894;2023-02-14T03:00:28;100241.25;;;4.69;100.00
43681;BME280;29281;50.356;30.894;2023-02-14T03:01:33;100251.70;;;4.71;100.00
43681;BME280;29281;50.356;30.894;2023-02-14T03:02:43;100249.33;;;4.65;100.00
43681;BME280;29281;50.356;30.894;2023-02-14T03:04:06;100241.44;;;4.65;100.00
43681;BME280;29281;50.356;30.894;2023-02-14T03:05:31;100256.63;;;4.78;100.00
43681;BME280;29281;50.356;30.894;2023-02-14T03:06:36;100252.16;;;4.80;100.00
43681;BME280;29281;50.356;30.894;2023-02-14T03:07:40;100264.27;;;4.84;100.00
43681;BME280;29281;50.356;30.894;2023-02-14T03:08:46;100255.44;;;4.65;100.00
43681;BME280;29281;50.356;30.894;2023-02-14T03:09:54;100267.53;;;4.49;100.00
43681;BME280;29281;50.356;30.894;2023-02-14T03:11:00;100273.59;;;4.51;100.00
43681;BME280;29281;50.356;30.894;2023-02-14T03:13:46;100279.12;;;4.65;100.00
43681;BME280;29281;50.356;30.894;2023-02-14T03:17:05;100288.47;;;4.72;100.00
43681;BME280;29281;50.356;30.894;2023-02-14T03:19:25;100290.25;;;4.72;100.00
43681;BME280;29281;50.356;30.894;2023-02-14T03:20:54;100293.86;;;4.69;100.00
43681;BME280;29281;50.356;30.894;2023-02-14T03:24:04;100295.14;;;4.59;100.00
43681;BME280;29281;50.356;30.894;2023-02-14T03:26:33;100295.75;;;4.66;100.00
43681;BME280;29281;50.356;30.894;2023-02-14T03:27:37;100297.71;;;4.60;100.00
43681;BME280;29281;50.356;30.894;2023-02-14T03:31:17;100297.31;;;4.49;100.00
43681;BME280;29281;50.356;30.894;2023-02-14T03:33:40;100299.14;;;4.47;100.00
43681;BME280;29281;50.356;30.894;2023-02-14T03:36:13;100303.26;;;4.33;100.00
43681;BME280;29281;50.356;30.894;2023-02-14T03:37:19;100293.54;;;4.35;100.00
43681;BME280;29281;50.356;30.894;2023-02-14T03:38:32;100304.67;;;4.19;100.00
43681;BME280;29281;50.356;30.894;2023-02-14T03:41:53;100298.63;;;4.17;100.00
43681;BME280;29281;50.356;30.894;2023-02-14T03:43:06;100305.97;;;4.09;100.00
43681;BME280;29281;50.356;30.894;2023-02-14T03:44:02;100301.86;;;4.02;100.00
43681;BME280;29281;50.356;30.894;2023-02-14T03:45:09;100306.22;;;4.25;100.00
43681;BME280;29281;50.356;30.894;2023-02-14T03:46:19;100306.62;;;4.14;100.00
43681;BME280;29281;50.356;30.894;2023-02-14T03:47:21;100301.19;;;4.19;100.00
43681;BME280;29281;50.356;30.894;2023-02-14T03:48:26;100299.91;;;4.07;100.00
43681;BME280;29281;50.356;30.894;2023-02-14T03:49:33;100305.00;;;4.12;100.00
43681;BME280;29281;50.356;30.894;2023-02-14T03:50:39;100307.73;;;4.09;100.00
43681;BME280;29281;50.356;30.894;2023-02-14T03:51:44;100300.69;;;3.87;100.00
43681;BME280;29281;50.356;30.894;2023-02-14T03:52:49;100304.66;;;3.98;100.00
43681;BME280;29281;50.356;30.894;2023-02-14T03:53:53;100307.23;;;3.99;100.00
43681;BME280;29281;50.356;30.894;2023-02-14T03:54:57;100310.55;;;4.04;100.00
43681;BME280;29281;50.356;30.894;2023-02-14T03:57:12;100300.94;;;4.03;100.00
43681;BME280;29281;50.356;30.894;2023-02-14T03:58:26;100297.11;;;4.12;100.00
43681;BME280;29281;50.356;30.894;2023-02-14T03:59:30;100296.84;;;4.18;100.00
43681;BME280;29281;50.356;30.894;2023-02-14T04:00:35;100300.26;;;3.98;100.00
43681;BME280;29281;50.356;30.894;2023-02-14T04:01:46;100288.72;;;3.80;100.00
43681;BME280;29281;50.356;30.894;2023-02-14T04:02:52;100285.04;;;3.84;100.00
43681;BME280;29281;50.356;30.894;2023-02-14T04:03:55;100285.72;;;3.89;100.00
43681;BME280;29281;50.356;30.894;2023-02-14T04:05:00;100285.30;;;3.78;100.00
43681;BME280;29281;50.356;30.894;2023-02-14T04:06:05;100289.00;;;3.73;100.00
43681;BME280;29281;50.356;30.894;2023-02-14T04:07:09;100295.97;;;3.74;100.00
43681;BME280;29281;50.356;30.894;2023-02-14T04:08:24;100292.27;;;3.79;100.00
43681;BME280;29281;50.356;30.894;2023-02-14T04:09:28;100296.52;;;3.82;100.00
43681;BME280;29281;50.356;30.894;2023-02-14T04:10:31;100301.71;;;3.83;100.00
43681;BME280;29281;50.356;30.894;2023-02-14T04:11:38;100289.44;;;3.84;100.00
43681;BME280;29281;50.356;30.894;2023-02-14T04:12:41;100296.52;;;3.82;100.00
43681;BME280;29281;50.356;30.894;2023-02-14T04:13:46;100294.69;;;3.84;100.00
43681;BME280;29281;50.356;30.894;2023-02-14T04:14:50;100296.52;;;3.82;100.00
43681;BME280;29281;50.356;30.894;2023-02-14T04:15:53;100297.89;;;3.92;100.00
43681;BME280;29281;50.356;30.894;2023-02-14T04:16:56;100302.77;;;3.79;100.00
43681;BME280;29281;50.356;30.894;2023-02-14T04:18:17;100307.97;;;3.81;100.00
43681;BME280;29281;50.356;30.894;2023-02-14T04:19:39;100299.94;;;3.84;100.00
43681;BME280;29281;50.356;30.894;2023-02-14T04:20:42;100295.75;;;4.02;100.00
43681;BME280;29281;50.356;30.894;2023-02-14T04:21:46;100299.83;;;3.87;100.00
43681;BME280;29281;50.356;30.894;2023-02-14T04:22:49;100296.99;;;3.70;100.00
43681;BME280;29281;50.356;30.894;2023-02-14T04:23:53;100302.98;;;3.73;100.00
43681;BME280;29281;50.356;30.894;2023-02-14T04:24:56;100306.11;;;3.83;100.00
43681;BME280;29281;50.356;30.894;2023-02-14T04:25:59;100303.48;;;3.83;100.00
43681;BME280;29281;50.356;30.894;2023-02-14T04:27:03;100306.46;;;3.97;100.00
43681;BME280;29281;50.356;30.894;2023-02-14T04:28:14;100312.00;;;3.89;100.00
43681;BME280;29281;50.356;30.894;2023-02-14T04:29:16;100311.31;;;3.84;100.00
43681;BME280;29281;50.356;30.894;2023-02-14T04:30:22;100315.84;;;3.81;100.00
43681;BME280;29281;50.356;30.894;2023-02-14T04:31:25;100310.97;;;3.94;100.00
43681;BME280;29281;50.356;30.894;2023-02-14T04:32:30;100311.83;;;3.94;100.00
43681;BME280;29281;50.356;30.894;2023-02-14T04:33:34;100320.95;;;3.84;100.00
43681;BME280;29281;50.356;30.894;2023-02-14T04:34:38;100320.16;;;3.82;100.00
43681;BME280;29281;50.356;30.894;2023-02-14T04:35:42;100322.13;;;3.77;100.00
43681;BME280;29281;50.356;30.894;2023-02-14T04:36:46;100315.96;;;3.78;100.00
43681;BME280;29281;50.356;30.894;2023-02-14T04:37:50;100330.97;;;3.74;100.00
43681;BME280;29281;50.356;30.894;2023-02-14T04:38:56;100326.63;;;3.73;100.00
43681;BME280;29281;50.356;30.894;2023-02-14T04:39:58;100327.81;;;3.88;100.00
43681;BME280;29281;50.356;30.894;2023-02-14T04:41:01;100324.50;;;3.83;100.00
43681;BME280;29281;50.356;30.894;2023-02-14T04:42:05;100331.52;;;3.82;100.00
43681;BME280;29281;50.356;30.894;2023-02-14T04:43:08;100335.81;;;3.85;100.00
43681;BME280;29281;50.356;30.894;2023-02-14T04:44:11;100342.17;;;3.79;100.00
43681;BME280;29281;50.356;30.894;2023-02-14T04:45:15;100336.97;;;3.78;100.00
43681;BME280;29281;50.356;30.894;2023-02-14T04:46:18;100335.20;;;3.78;100.00
43681;BME280;29281;50.356;30.894;2023-02-14T04:47:22;100336.61;;;3.87;100.00
43681;BME280;29281;50.356;30.894;2023-02-14T04:48:26;100336.17;;;3.76;100.00
43681;BME280;29281;50.356;30.894;2023-02-14T04:49:29;100340.26;;;3.83;100.00
43681;BME280;29281;50.356;30.894;2023-02-14T04:50:32;100344.44;;;3.88;100.00
43681;BME280;29281;50.356;30.894;2023-02-14T04:51:36;100341.27;;;4.02;100.00
43681;BME280;29281;50.356;30.894;2023-02-14T04:52:40;100338.91;;;3.96;100.00
43681;BME280;29281;50.356;30.894;2023-02-14T04:53:45;100338.85;;;3.74;100.00
43681;BME280;29281;50.356;30.894;2023-02-14T04:54:48;100339.21;;;3.65;100.00
43681;BME280;29281;50.356;30.894;2023-02-14T04:55:56;100338.00;;;3.74;100.00
43681;BME280;29281;50.356;30.894;2023-02-14T04:56:56;100338.96;;;3.71;100.00
43681;BME280;29281;50.356;30.894;2023-02-14T04:58:01;100339.41;;;3.82;100.00
43681;BME280;29281;50.356;30.894;2023-02-14T04:59:04;100341.27;;;3.80;100.00
43681;BME280;29281;50.356;30.894;2023-02-14T05:00:11;100340.95;;;3.88;100.00
43681;BME280;29281;50.356;30.894;2023-02-14T05:01:17;100344.33;;;3.92;100.00
43681;BME280;29281;50.356;30.894;2023-02-14T05:02:23;100350.55;;;3.89;100.00
43681;BME280;29281;50.356;30.894;2023-02-14T05:03:26;100350.55;;;3.89;100.00
43681;BME280;29281;50.356;30.894;2023-02-14T05:04:30;100346.38;;;3.83;100.00
43681;BME280;29281;50.356;30.894;2023-02-14T05:05:33;100355.69;;;3.92;100.00
43681;BME280;29281;50.356;30.894;2023-02-14T05:06:37;100359.50;;;3.83;100.00
43681;BME280;29281;50.356;30.894;2023-02-14T05:07:41;100362.33;;;3.79;100.00
43681;BME280;29281;50.356;30.894;2023-02-14T05:08:45;100372.59;;;3.85;100.00
43681;BME280;29281;50.356;30.894;2023-02-14T05:09:50;100365.92;;;3.76;100.00
43681;BME280;29281;50.356;30.894;2023-02-14T05:10:54;100360.99;;;3.67;100.00
43681;BME280;29281;50.356;30.894;2023-02-14T05:11:58;100366.19;;;3.69;100.00
43681;BME280;29281;50.356;30.894;2023-02-14T05:13:01;100371.87;;;3.81;100.00
43681;BME280;29281;50.356;30.894;2023-02-14T05:14:05;100369.52;;;3.74;100.00
43681;BME280;29281;50.356;30.894;2023-02-14T05:15:08;100369.81;;;3.66;100.00
43681;BME280;29281;50.356;30.894;2023-02-14T05:16:12;100368.16;;;3.64;100.00
43681;BME280;29281;50.356;30.894;2023-02-14T05:17:16;100371.28;;;3.73;100.00
43681;BME280;29281;50.356;30.894;2023-02-14T05:18:21;100367.64;;;3.77;100.00
43681;BME280;29281;50.356;30.894;2023-02-14T05:19:25;100350.91;;;3.80;100.00
43681;BME280;29281;50.356;30.894;2023-02-14T05:20:28;100364.42;;;3.69;100.00
43681;BME280;29281;50.356;30.894;2023-02-14T05:21:32;100363.86;;;3.61;100.00
43681;BME280;29281;50.356;30.894;2023-02-14T05:22:37;100352.95;;;3.72;100.00
43681;BME280;29281;50.356;30.894;2023-02-14T05:23:41;100352.25;;;3.67;100.00
43681;BME280;29281;50.356;30.894;2023-02-14T05:24:46;100362.20;;;3.59;100.00
43681;BME280;29281;50.356;30.894;2023-02-14T05:25:51;100350.73;;;3.61;100.00
43681;BME280;29281;50.356;30.894;2023-02-14T05:26:53;100352.82;;;3.51;100.00
43681;BME280;29281;50.356;30.894;2023-02-14T05:27:58;100362.90;;;3.64;100.00
43681;BME280;29281;50.356;30.894;2023-02-14T05:29:01;100355.23;;;3.58;100.00
43681;BME280;29281;50.356;30.894;2023-02-14T05:30:05;100355.73;;;3.44;100.00
43681;BME280;29281;50.356;30.894;2023-02-14T05:31:09;100365.69;;;3.59;100.00
43681;BME280;29281;50.356;30.894;2023-02-14T05:32:11;100356.59;;;3.68;100.00
43681;BME280;29281;50.356;30.894;2023-02-14T05:33:15;100354.38;;;3.57;100.00
43681;BME280;29281;50.356;30.894;2023-02-14T05:34:19;100359.69;;;3.56;100.00
43681;BME280;29281;50.356;30.894;2023-02-14T05:35:23;100356.09;;;3.58;100.00
43681;BME280;29281;50.356;30.894;2023-02-14T05:36:26;100362.09;;;3.62;100.00
43681;BME280;29281;50.356;30.894;2023-02-14T05:37:31;100358.56;;;3.63;100.00
43681;BME280;29281;50.356;30.894;2023-02-14T05:38:34;100361.69;;;3.72;100.00
43681;BME280;29281;50.356;30.894;2023-02-14T05:39:39;100375.73;;;3.71;100.00
43681;BME280;29281;50.356;30.894;2023-02-14T05:40:42;100370.06;;;3.82;100.00
43681;BME280;29281;50.356;30.894;2023-02-14T05:41:46;100360.67;;;3.76;100.00
43681;BME280;29281;50.356;30.894;2023-02-14T05:42:53;100355.31;;;3.79;100.00
43681;BME280;29281;50.356;30.894;2023-02-14T05:43:58;100367.53;;;3.80;100.00
43681;BME280;29281;50.356;30.894;2023-02-14T05:45:02;100366.67;;;3.80;100.00
43681;BME280;29281;50.356;30.894;2023-02-14T05:46:06;100369.63;;;3.71;100.00
43681;BME280;29281;50.356;30.894;2023-02-14T05:47:09;100373.50;;;3.84;100.00
43681;BME280;29281;50.356;30.894;2023-02-14T05:48:14;100373.64;;;3.81;100.00
43681;BME280;29281;50.356;30.894;2023-02-14T05:49:17;100362.55;;;3.96;100.00
43681;BME280;29281;50.356;30.894;2023-02-14T05:50:21;100363.91;;;3.83;100.00
43681;BME280;29281;50.356;30.894;2023-02-14T05:51:25;100378.14;;;3.77;100.00
43681;BME280;29281;50.356;30.894;2023-02-14T05:52:29;100378.60;;;3.65;100.00
43681;BME280;29281;50.356;30.894;2023-02-14T05:53:31;100370.20;;;3.79;100.00
43681;BME280;29281;50.356;30.894;2023-02-14T05:54:36;100370.92;;;3.82;100.00
43681;BME280;29281;50.356;30.894;2023-02-14T05:55:40;100367.00;;;3.71;100.00
43681;BME280;29281;50.356;30.894;2023-02-14T05:56:44;100371.73;;;3.61;100.00
43681;BME280;29281;50.356;30.894;2023-02-14T05:57:47;100370.20;;;3.79;100.00
43681;BME280;29281;50.356;30.894;2023-02-14T05:58:51;100379.56;;;3.86;100.00
43681;BME280;29281;50.356;30.894;2023-02-14T05:59:56;100377.73;;;3.88;100.00
43681;BME280;29281;50.356;30.894;2023-02-14T06:00:59;100375.33;;;3.82;100.00
43681;BME280;29281;50.356;30.894;2023-02-14T06:02:03;100375.27;;;3.83;100.00
43681;BME280;29281;50.356;30.894;2023-02-14T06:03:06;100372.89;;;3.77;100.00
43681;BME280;29281;50.356;30.894;2023-02-14T06:04:09;100374.14;;;3.91;100.00
43681;BME280;29281;50.356;30.894;2023-02-14T06:05:14;100375.80;;;3.93;100.00
43681;BME280;29281;50.356;30.894;2023-02-14T06:06:19;100382.23;;;3.84;100.00
43681;BME280;29281;50.356;30.894;2023-02-14T06:07:22;100388.24;;;3.88;100.00
43681;BME280;29281;50.356;30.894;2023-02-14T06:08:24;100384.43;;;3.97;100.00
43681;BME280;29281;50.356;30.894;2023-02-14T06:09:29;100383.58;;;3.96;100.00
43681;BME280;29281;50.356;30.894;2023-02-14T06:10:33;100393.36;;;4.14;100.00
43681;BME280;29281;50.356;30.894;2023-02-14T06:11:37;100390.62;;;4.17;100.00
43681;BME280;29281;50.356;30.894;2023-02-14T06:12:41;100398.75;;;4.11;100.00
43681;BME280;29281;50.356;30.894;2023-02-14T06:13:45;100403.04;;;3.91;100.00
43681;BME280;29281;50.356;30.894;2023-02-14T06:14:47;100391.95;;;4.06;100.00
43681;BME280;29281;50.356;30.894;2023-02-14T06:15:53;100383.21;;;4.05;100.00
43681;BME280;29281;50.356;30.894;2023-02-14T06:16:57;100401.66;;;4.04;100.00
43681;BME280;29281;50.356;30.894;2023-02-14T06:18:01;100400.91;;;4.00;100.00
43681;BME280;29281;50.356;30.894;2023-02-14T06:19:05;100388.30;;;4.10;100.00
43681;BME280;29281;50.356;30.894;2023-02-14T06:20:08;100397.59;;;4.18;100.00